Airfield :
LOGIN :

Register | Disclaimer

   EN    FR    IT 

 










Legend :    VFR   Marginal VFR   IFR   Intensive IFR   Very Intensive IFR
Visi :
Ceiling :
>= 8 km
>= 3000ft
5 to 8 km
1000 to 3000 ft
1500m to 5 km
500 to 1000 ft
800 to 1500m
200 to 500 ft
< 800m
< 200 ft
Symbols :   Thunderstorms  Fog  Heavy snow  Heavy precipitations  Wind > 20 kt
SIGMETs :     Misc.  Thunderstorms  Icing  Turbulence  Mountain Waves  Volcanic Ashes







- Airport Elevation : 42 ft
- IATA code : KGD


UMKK - Khrabrava - Kaliningrad

CURRENT METAR :
  • 171130Z 21002MPS CAVOK 20/08 Q1021 R24/CLRD60 NOSIG RMK QFE765/1020

EXPIRED METARs :
  • 171100Z 19002MPS 160V220 CAVOK 20/09 Q1022 R24/CLRD60 NOSIG RMK QFE765/1020
  • 171030Z 22002MPS 170V250 CAVOK 19/10 Q1022 R24/CLRD60 NOSIG RMK QFE765/1020
  • 171000Z 19002MPS CAVOK 18/10 Q1022 R24/CLRD60 NOSIG RMK QFE765/1020
  • 170930Z 20002MPS 160V260 CAVOK 17/09 Q1022 R24/60D NOSIG RMK QFE765/1020
  • 170900Z VRB01MPS CAVOK 16/09 Q1022 R24/60D NOSIG RMK QFE765/1020

TAF TAF UMKK
Valid from the 17 at 12:00 until the 18 at 12:00 UTC


171100Z 1712/1812 18003G08MPS CAVOK
TEMPO 1723/1806 3100 BR MIFG
BECMG 1806/1808 VRB01MPS



MET'MAP, your aeronautical weather chart ! - Copyright ORBIFLY December 2007 - Disclaimer

ORBIFLY MET'MAP TEAM :

Programming & Development : Alexandra Zaïnal
Concept & Development : Baudouin d'Aumeries
Co-Development & Prog : Marc-Olivier Méhu
Technical & hardware support : Manuel Goepfert

Contact : metmap@orbifly.com




SOURCES & CREDITS :

   NOAA